createdAt,value
2019-01-22T00:01:02.567Z,85.92
2019-01-22T00:04:09.799Z,85.20
2019-01-22T00:07:16.812Z,85.34
2019-01-22T00:10:24.080Z,85.24
2019-01-22T00:13:31.002Z,85.29
2019-01-22T00:16:37.920Z,85.14
2019-01-22T00:19:46.262Z,85.28
2019-01-22T00:22:53.538Z,85.63
2019-01-22T00:26:00.467Z,85.75
2019-01-22T00:29:07.373Z,85.77
2019-01-22T00:32:14.398Z,86.85
2019-01-22T00:35:21.683Z,85.60
2019-01-22T00:38:28.673Z,84.76
2019-01-22T00:41:35.559Z,84.68
2019-01-22T00:44:42.480Z,83.93
2019-01-22T00:47:49.370Z,84.55
2019-01-22T00:50:56.314Z,85.39
2019-01-22T00:54:03.256Z,84.45
2019-01-22T00:57:11.874Z,83.70
2019-01-22T01:00:29.904Z,85.55
2019-01-22T01:03:37.204Z,84.69
2019-01-22T01:06:44.219Z,83.73
2019-01-22T01:09:51.155Z,86.85
2019-01-22T01:12:58.362Z,85.17
2019-01-22T01:16:05.448Z,87.08
2019-01-22T01:19:12.452Z,86.53
2019-01-22T01:22:19.609Z,86.27
2019-01-22T01:25:26.578Z,87.13
2019-01-22T01:28:33.521Z,85.75
2019-01-22T01:31:40.424Z,85.21
2019-01-22T01:34:47.545Z,85.54
2019-01-22T01:37:54.459Z,85.12
2019-01-22T01:41:01.418Z,85.08
2019-01-22T01:44:08.345Z,85.48
2019-01-22T01:47:17.147Z,85.75
2019-01-22T01:50:24.122Z,85.72
2019-01-22T01:53:31.071Z,86.07
2019-01-22T01:56:37.986Z,85.95
2019-01-22T01:59:45.310Z,86.11
2019-01-22T02:02:52.211Z,86.04
2019-01-22T02:06:00.677Z,86.42
2019-01-22T02:09:09.146Z,85.78
2019-01-22T02:12:19.803Z,85.00
2019-01-22T02:15:39.594Z,84.60
2019-01-22T02:19:17.525Z,84.90
2019-01-22T02:23:22.563Z,85.22
2019-01-22T02:27:00.126Z,84.36
2019-01-22T02:30:46.685Z,84.41
2019-01-22T02:34:30.017Z,85.61
2019-01-22T02:38:25.813Z,85.10
2019-01-22T02:42:10.651Z,84.61
2019-01-22T02:45:58.468Z,85.90
2019-01-22T02:50:09.483Z,85.35
2019-01-22T02:53:57.574Z,85.59
2019-01-22T02:57:51.180Z,85.72
2019-01-22T03:02:22.294Z,85.48
2019-01-22T03:06:48.103Z,85.81
2019-01-22T03:10:43.979Z,84.94
2019-01-22T03:14:12.232Z,85.12
2019-01-22T03:18:08.079Z,85.42
2019-01-22T03:21:41.571Z,84.70
2019-01-22T03:25:50.694Z,84.99
2019-01-22T03:29:56.493Z,85.01
2019-01-22T03:34:05.113Z,84.49
2019-01-22T03:37:58.445Z,84.82
2019-01-22T03:41:47.949Z,84.74
2019-01-22T03:45:59.765Z,85.10
2019-01-22T03:49:16.824Z,85.15
2019-01-22T03:53:15.889Z,85.39
2019-01-22T03:56:54.238Z,85.52
2019-01-22T04:00:01.263Z,85.32
2019-01-22T04:03:08.334Z,85.66
2019-01-22T04:06:29.679Z,85.53
2019-01-22T04:09:49.103Z,85.81
2019-01-22T04:12:56.032Z,85.67
2019-01-22T04:16:04.000Z,84.64
2019-01-22T04:19:12.807Z,85.21
2019-01-22T04:22:38.274Z,84.77
2019-01-22T04:26:24.901Z,85.43
2019-01-22T04:31:08.411Z,85.40
2019-01-22T04:35:05.503Z,85.43
2019-01-22T04:39:33.966Z,85.74
2019-01-22T04:43:54.147Z,86.20
2019-01-22T04:47:44.678Z,86.02
2019-01-22T04:51:19.756Z,85.98
2019-01-22T04:55:25.377Z,85.75
2019-01-22T04:59:16.589Z,85.76
2019-01-22T05:02:33.815Z,85.63
2019-01-22T05:06:37.873Z,85.96
2019-01-22T05:10:22.509Z,86.00
2019-01-22T05:14:28.571Z,86.31
2019-01-22T05:18:11.949Z,85.96
2019-01-22T05:22:36.275Z,86.37
2019-01-22T05:26:58.242Z,86.16
2019-01-22T05:31:23.356Z,86.04
2019-01-22T05:35:43.284Z,85.90
2019-01-22T05:39:13.852Z,86.19
2019-01-22T05:43:09.903Z,86.03
2019-01-22T05:47:19.999Z,85.95
2019-01-22T05:51:25.941Z,85.96
2019-01-22T05:55:18.285Z,84.95
2019-01-22T05:59:20.490Z,85.51
2019-01-22T06:02:40.013Z,85.75
2019-01-22T06:06:57.797Z,86.12
2019-01-22T06:11:16.927Z,85.96
2019-01-22T06:15:21.788Z,85.92
2019-01-22T06:19:05.767Z,86.07
2019-01-22T06:23:16.425Z,85.51
2019-01-22T06:26:44.604Z,85.98
2019-01-22T06:30:35.777Z,85.91
2019-01-22T06:34:32.270Z,85.85
2019-01-22T06:38:30.219Z,85.88
2019-01-22T06:42:47.417Z,84.93
2019-01-22T06:46:46.762Z,84.74
2019-01-22T06:50:35.123Z,84.06
2019-01-22T06:54:27.246Z,84.01
2019-01-22T06:58:44.701Z,84.84
2019-01-22T07:02:54.099Z,84.01
2019-01-22T07:06:45.476Z,84.71
2019-01-22T07:10:32.762Z,84.00
2019-01-22T07:14:29.762Z,83.93
2019-01-22T07:18:12.945Z,85.34
2019-01-22T07:22:38.616Z,85.95
2019-01-22T07:26:49.019Z,85.13
2019-01-22T07:31:07.662Z,85.63
2019-01-22T07:35:02.280Z,85.21
2019-01-22T07:39:03.496Z,85.55
2019-01-22T07:42:45.152Z,85.12
2019-01-22T07:46:51.284Z,85.55
2019-01-22T07:50:49.438Z,85.25
2019-01-22T07:54:36.594Z,84.82
2019-01-22T07:58:54.935Z,84.96
2019-01-22T08:02:49.062Z,85.21
2019-01-22T08:06:21.961Z,85.03
2019-01-22T08:10:22.915Z,84.90
2019-01-22T08:14:39.491Z,84.90
2019-01-22T08:18:45.451Z,84.67
2019-01-22T08:23:03.573Z,84.66
2019-01-22T08:26:54.622Z,84.54
2019-01-22T08:31:09.213Z,84.48
2019-01-22T08:34:56.987Z,84.19
2019-01-22T08:39:11.204Z,83.81
2019-01-22T08:43:42.930Z,83.59
2019-01-22T08:47:43.229Z,83.52
2019-01-22T08:51:23.191Z,83.22
2019-01-22T08:55:08.039Z,82.68
2019-01-22T08:59:08.979Z,82.24
2019-01-22T09:03:13.335Z,82.67
2019-01-22T09:07:14.116Z,82.26
2019-01-22T09:11:20.091Z,82.00
2019-01-22T09:15:00.442Z,82.02
2019-01-22T09:18:44.748Z,81.79
2019-01-22T09:22:51.350Z,81.65
2019-01-22T09:26:34.002Z,81.71
2019-01-22T09:30:00.356Z,80.99
2019-01-22T09:33:49.620Z,81.32
2019-01-22T09:37:35.644Z,80.83
2019-01-22T09:40:43.077Z,81.02
2019-01-22T09:43:50.105Z,80.36
2019-01-22T09:46:57.095Z,80.08
2019-01-22T09:50:04.833Z,79.75
2019-01-22T09:53:11.776Z,79.16
2019-01-22T09:56:18.712Z,79.06
2019-01-22T09:59:26.419Z,78.67
2019-01-22T10:02:33.343Z,78.67
2019-01-22T10:05:40.233Z,78.64
2019-01-22T10:08:47.943Z,78.97
2019-01-22T10:11:54.912Z,77.85
2019-01-22T10:15:02.059Z,77.99
2019-01-22T10:18:10.019Z,77.17
2019-01-22T10:21:16.972Z,77.41
2019-01-22T10:24:24.435Z,77.14
2019-01-22T10:27:31.355Z,77.06
2019-01-22T10:30:38.264Z,76.08
2019-01-22T10:33:45.757Z,76.57
2019-01-22T10:36:52.817Z,76.27
2019-01-22T10:39:59.817Z,76.91
2019-01-22T10:43:09.380Z,77.21
2019-01-22T10:46:15.437Z,77.04
2019-01-22T10:49:22.565Z,76.58
2019-01-22T10:52:29.852Z,76.69
2019-01-22T10:55:37.599Z,75.46
2019-01-22T10:58:45.699Z,75.48
2019-01-22T11:01:52.672Z,76.28
2019-01-22T11:04:59.631Z,75.38
2019-01-22T11:08:06.899Z,75.76
2019-01-22T11:11:37.384Z,76.24
2019-01-22T11:14:45.041Z,74.97
2019-01-22T11:17:53.067Z,74.93
2019-01-22T11:20:59.983Z,75.42
2019-01-22T11:24:07.104Z,75.32
2019-01-22T11:27:14.011Z,75.60
2019-01-22T11:30:23.571Z,73.83
2019-01-22T11:33:33.415Z,75.25
2019-01-22T11:36:39.093Z,74.43
2019-01-22T11:39:45.989Z,73.60
2019-01-22T11:42:52.986Z,74.04
2019-01-22T11:45:59.863Z,73.29
2019-01-22T11:49:06.924Z,74.34
2019-01-22T11:52:16.905Z,74.02
2019-01-22T11:55:23.843Z,74.05
2019-01-22T11:58:30.749Z,73.72
2019-01-22T12:01:37.716Z,72.19
2019-01-22T12:04:44.631Z,73.14
2019-01-22T12:07:51.718Z,73.50
2019-01-22T12:10:58.613Z,73.08
2019-01-22T12:14:05.877Z,73.69
2019-01-22T12:17:13.317Z,72.94
2019-01-22T12:20:24.258Z,72.82
2019-01-22T12:23:31.250Z,73.06
2019-01-22T12:26:38.196Z,71.57
2019-01-22T12:29:45.097Z,71.73
2019-01-22T12:32:52.026Z,71.22
2019-01-22T12:35:58.927Z,71.01
2019-01-22T12:39:10.040Z,72.66
2019-01-22T12:42:17.008Z,71.07
2019-01-22T12:45:31.058Z,70.98
2019-01-22T12:48:39.082Z,72.52
2019-01-22T12:51:46.015Z,71.57
2019-01-22T12:54:52.910Z,71.60
2019-01-22T12:57:59.871Z,70.93
2019-01-22T13:01:07.862Z,72.29
2019-01-22T13:04:14.819Z,71.27
2019-01-22T13:07:21.782Z,71.97
2019-01-22T13:10:28.739Z,71.55
2019-01-22T13:13:35.761Z,71.11
2019-01-22T13:16:42.947Z,70.85
2019-01-22T13:19:49.890Z,71.44
2019-01-22T13:22:57.262Z,71.32
2019-01-22T13:26:11.498Z,70.80
2019-01-22T13:29:14.541Z,70.99
2019-01-22T13:32:21.547Z,71.02
2019-01-22T13:35:28.549Z,71.28
2019-01-22T13:38:35.528Z,70.99
2019-01-22T13:41:42.464Z,71.05
2019-01-22T13:44:49.362Z,70.83
2019-01-22T13:47:57.305Z,71.09
2019-01-22T13:51:04.624Z,71.11
2019-01-22T13:54:11.812Z,71.15
2019-01-22T13:57:18.881Z,71.73
2019-01-22T14:00:26.238Z,69.86
2019-01-22T14:03:33.155Z,69.91
2019-01-22T14:06:40.140Z,70.29
2019-01-22T14:09:47.040Z,71.80
2019-01-22T14:12:54.006Z,69.82
2019-01-22T14:16:00.931Z,70.32
2019-01-22T14:19:11.104Z,70.44
2019-01-22T14:22:18.086Z,70.50
2019-01-22T14:25:25.478Z,69.73
2019-01-22T14:28:32.381Z,71.04
2019-01-22T14:31:39.315Z,70.06
2019-01-22T14:34:46.209Z,70.33
2019-01-22T14:37:53.150Z,69.87
2019-01-22T14:41:00.055Z,70.06
2019-01-22T14:44:08.681Z,70.78
2019-01-22T14:47:15.603Z,70.98
2019-01-22T14:50:25.378Z,70.96
2019-01-22T14:53:32.457Z,71.31
2019-01-22T14:56:39.464Z,71.66
2019-01-22T14:59:46.357Z,71.57
2019-01-22T15:02:53.769Z,71.81
2019-01-22T15:06:00.704Z,71.87
2019-01-22T15:09:09.313Z,71.96
2019-01-22T15:12:16.233Z,72.22
2019-01-22T15:15:23.347Z,72.95
2019-01-22T15:18:30.318Z,73.37
2019-01-22T15:21:37.428Z,73.42
2019-01-22T15:24:46.508Z,73.96
2019-01-22T15:27:53.802Z,73.92
2019-01-22T15:31:00.725Z,74.11
2019-01-22T15:34:08.202Z,74.17
2019-01-22T15:37:15.253Z,73.62
2019-01-22T15:40:25.050Z,75.26
2019-01-22T15:43:32.006Z,75.47
2019-01-22T15:46:38.939Z,76.20
2019-01-22T15:49:46.003Z,77.33
2019-01-22T15:52:52.983Z,75.78
2019-01-22T15:55:59.992Z,78.23
2019-01-22T15:59:07.216Z,78.13
2019-01-22T16:02:15.766Z,78.33
2019-01-22T16:05:23.114Z,79.34
2019-01-22T16:08:30.041Z,79.00
2019-01-22T16:11:41.924Z,79.67
2019-01-22T16:14:50.434Z,78.83
2019-01-22T16:17:57.931Z,79.17
2019-01-22T16:21:08.308Z,80.13
2019-01-22T16:24:15.317Z,81.22
2019-01-22T16:27:22.272Z,81.36
2019-01-22T16:30:30.341Z,80.30
2019-01-22T16:33:37.323Z,81.12
2019-01-22T16:36:47.554Z,79.66
2019-01-22T16:39:54.717Z,79.50
2019-01-22T16:43:01.910Z,80.86
2019-01-22T16:46:15.918Z,80.37
2019-01-22T16:49:25.108Z,79.90
2019-01-22T16:52:33.293Z,78.43
2019-01-22T16:55:42.173Z,79.59
2019-01-22T16:58:49.434Z,81.43
2019-01-22T17:01:56.500Z,80.29
2019-01-22T17:05:08.599Z,80.11
2019-01-22T17:08:15.684Z,79.94
2019-01-22T17:11:22.748Z,79.60
2019-01-22T17:14:30.138Z,79.29
2019-01-22T17:17:37.067Z,76.29
2019-01-22T17:20:47.863Z,74.72
2019-01-22T17:23:53.077Z,74.22
2019-01-22T17:27:00.160Z,75.70
2019-01-22T17:30:11.913Z,74.16
2019-01-22T17:33:23.097Z,75.93
2019-01-22T17:36:30.092Z,75.40
2019-01-22T17:39:37.037Z,72.57
2019-01-22T17:42:43.937Z,75.87
2019-01-22T17:45:51.153Z,76.96
2019-01-22T17:49:01.276Z,74.85
2019-01-22T17:52:26.671Z,76.32
2019-01-22T17:55:35.467Z,75.34
2019-01-22T17:58:43.650Z,76.29
2019-01-22T18:01:50.652Z,76.14
2019-01-22T18:04:57.617Z,76.37
2019-01-22T18:08:04.754Z,74.86
2019-01-22T18:11:11.743Z,75.94
2019-01-22T18:14:18.680Z,76.19
2019-01-22T18:17:25.664Z,74.43
2019-01-22T18:20:32.663Z,75.96
2019-01-22T18:23:41.135Z,76.96
2019-01-22T18:26:49.364Z,77.12
2019-01-22T18:29:57.933Z,76.50
2019-01-22T18:33:05.904Z,76.35
2019-01-22T18:36:13.238Z,76.03
2019-01-22T18:39:21.333Z,76.28
2019-01-22T18:42:28.270Z,76.92
2019-01-22T18:45:35.352Z,75.80
2019-01-22T18:48:42.318Z,75.25
2019-01-22T18:51:49.275Z,76.22
2019-01-22T18:54:57.407Z,75.32
2019-01-22T18:58:04.989Z,75.75
2019-01-22T19:01:12.131Z,76.69
2019-01-22T19:04:20.713Z,77.54
2019-01-22T19:07:29.147Z,77.99
2019-01-22T19:10:36.246Z,77.58
2019-01-22T19:13:43.281Z,78.59
2019-01-22T19:16:50.233Z,77.96
2019-01-22T19:19:57.207Z,80.02
2019-01-22T19:23:05.284Z,78.75
2019-01-22T19:26:12.320Z,79.50
2019-01-22T19:29:19.215Z,81.24
2019-01-22T19:32:26.241Z,79.81
2019-01-22T19:35:33.141Z,81.08
2019-01-22T19:38:41.216Z,79.98
2019-01-22T19:41:48.096Z,79.53
2019-01-22T19:44:55.019Z,78.85
2019-01-22T19:48:18.630Z,79.74
2019-01-22T19:51:20.508Z,78.85
2019-01-22T19:54:27.405Z,78.42
2019-01-22T19:57:40.774Z,79.52
2019-01-22T20:00:43.258Z,81.05
2019-01-22T20:03:50.248Z,82.15
2019-01-22T20:06:57.169Z,82.68
2019-01-22T20:10:05.372Z,80.96
2019-01-22T20:13:13.385Z,82.35
2019-01-22T20:16:20.418Z,82.33
2019-01-22T20:19:27.401Z,80.35
2019-01-22T20:22:34.542Z,81.04
2019-01-22T20:25:42.113Z,79.88
2019-01-22T20:28:49.703Z,80.48
2019-01-22T20:31:57.468Z,80.72
2019-01-22T20:35:07.129Z,80.42
2019-01-22T20:38:14.120Z,80.16
2019-01-22T20:41:21.459Z,80.29
2019-01-22T20:44:28.383Z,80.90
2019-01-22T20:47:35.564Z,80.93
2019-01-22T20:50:42.461Z,80.68
2019-01-22T20:53:49.546Z,81.26
2019-01-22T20:56:56.425Z,81.62
2019-01-22T21:00:03.465Z,81.37
2019-01-22T21:03:11.613Z,82.03
2019-01-22T21:06:18.597Z,81.47
2019-01-22T21:09:25.572Z,82.03
2019-01-22T21:12:32.499Z,82.21
2019-01-22T21:15:39.825Z,82.72
2019-01-22T21:18:46.917Z,82.11
2019-01-22T21:21:53.821Z,82.68
2019-01-22T21:25:01.022Z,82.29
2019-01-22T21:28:09.449Z,83.49
2019-01-22T21:31:16.401Z,83.52
2019-01-22T21:34:23.386Z,82.27
2019-01-22T21:37:30.306Z,82.97
2019-01-22T21:40:37.282Z,82.50
2019-01-22T21:43:44.541Z,82.50
2019-01-22T21:46:51.742Z,82.10
2019-01-22T21:49:59.851Z,82.23
2019-01-22T21:53:07.451Z,82.46
2019-01-22T21:56:14.389Z,82.29
2019-01-22T21:59:21.347Z,82.16
2019-01-22T22:02:28.278Z,82.29
2019-01-22T22:05:35.397Z,81.98
2019-01-22T22:08:45.454Z,82.40
2019-01-22T22:11:52.354Z,82.65
2019-01-22T22:14:59.594Z,82.80
2019-01-22T22:18:06.973Z,83.63
2019-01-22T22:21:14.973Z,82.96
2019-01-22T22:24:22.685Z,83.86
2019-01-22T22:27:29.635Z,82.95
2019-01-22T22:30:39.062Z,82.94
2019-01-22T22:33:46.120Z,82.32
2019-01-22T22:36:53.015Z,83.62
2019-01-22T22:40:03.112Z,82.63
2019-01-22T22:43:11.637Z,82.96
2019-01-22T22:46:18.965Z,82.58
2019-01-22T22:49:25.881Z,82.19
2019-01-22T22:52:38.791Z,83.26
2019-01-22T22:55:45.698Z,83.30
2019-01-22T22:58:52.643Z,83.98
2019-01-22T23:01:59.829Z,84.13
2019-01-22T23:05:07.137Z,83.40
2019-01-22T23:08:14.166Z,82.99
2019-01-22T23:11:21.113Z,82.98
2019-01-22T23:14:28.135Z,82.49
2019-01-22T23:17:35.046Z,82.70
2019-01-22T23:20:41.941Z,82.41
2019-01-22T23:23:49.974Z,82.41
2019-01-22T23:26:58.466Z,82.77
2019-01-22T23:30:07.225Z,82.75
2019-01-22T23:33:15.134Z,82.26
2019-01-22T23:36:22.085Z,81.99
2019-01-22T23:39:28.986Z,82.51
2019-01-22T23:42:36.366Z,83.34
2019-01-22T23:45:43.312Z,83.04
2019-01-22T23:48:50.526Z,83.81
2019-01-22T23:51:59.215Z,83.22
2019-01-22T23:55:10.293Z,83.30
2019-01-22T23:58:20.015Z,82.42
